Time;durP1;ratioP1;P1;durP2;ratioP2;P2;SDS_P1;SDS_P2;PMS_P1;PMS_P2;Temp;Humidity;BMP_temperature;BMP_pressure;BME280_temperature;BME280_humidity;BME280_pressure;Samples;Min_cycle;Max_cycle;Signal;HPM_P1;HPM_P2
2022/01/07 00:01:19;;;;;;;19.67;4.37;;;23.90;90.30;;;;;;5068295;28;20278;-75
2022/01/07 00:03:46;;;;;;;24.83;4.47;;;23.90;90.30;;;;;;5071470;28;20225;-75
2022/01/07 00:06:14;;;;;;;24.37;5.00;;;23.90;89.30;;;;;;5071348;28;20195;-80
2022/01/07 00:08:42;;;;;;;21.07;4.60;;;24.00;89.60;;;;;;5072683;28;20178;-74
2022/01/07 00:11:09;;;;;;;21.20;4.77;;;24.10;89.30;;;;;;5082253;28;20206;-73
2022/01/07 00:13:37;;;;;;;31.43;5.63;;;24.30;88.40;;;;;;5066528;28;20183;-77
2022/01/07 00:16:05;;;;;;;29.23;5.33;;;24.30;88.00;;;;;;5072251;28;20522;-75
2022/01/07 00:18:32;;;;;;;27.43;5.23;;;24.30;87.60;;;;;;5070717;28;20187;-80
2022/01/07 00:21:01;;;;;;;31.37;5.20;;;24.40;87.20;;;;;;5070302;28;20175;-75
2022/01/07 00:23:28;;;;;;;27.50;5.27;;;24.40;87.30;;;;;;5075679;28;20544;-73
2022/01/07 00:25:55;;;;;;;31.70;5.43;;;24.60;86.80;;;;;;5064609;28;20334;-80
2022/01/07 00:28:23;;;;;;;26.30;5.27;;;24.70;86.60;;;;;;5066291;28;20240;-78
2022/01/07 00:30:50;;;;;;;23.17;5.70;;;24.70;86.20;;;;;;5070560;28;20591;-78
2022/01/07 00:33:17;;;;;;;32.90;5.70;;;24.60;85.90;;;;;;5070207;28;20186;-79
2022/01/07 00:35:46;;;;;;;29.47;5.30;;;24.60;86.50;;;;;;5073576;28;20274;-73
2022/01/07 00:38:13;;;;;;;24.27;4.97;;;24.70;86.20;;;;;;5074132;28;20225;-82
2022/01/07 00:40:41;;;;;;;31.17;5.27;;;24.70;85.30;;;;;;5074546;28;20194;-74
2022/01/07 00:43:08;;;;;;;32.40;6.17;;;24.60;86.20;;;;;;5074392;28;20184;-77
2022/01/07 00:45:36;;;;;;;35.73;6.83;;;24.60;86.10;;;;;;5075267;28;20615;-74
2022/01/07 00:48:04;;;;;;;28.60;5.10;;;24.60;86.00;;;;;;5071466;28;20643;-73
2022/01/07 00:50:36;;;;;;;39.27;6.57;;;24.60;85.80;;;;;;5068712;28;20214;-73
2022/01/07 00:53:03;;;;;;;37.13;6.30;;;24.70;86.00;;;;;;5074021;28;20205;-80
2022/01/07 00:55:31;;;;;;;28.73;6.10;;;24.70;85.90;;;;;;5070087;28;20190;-84
2022/01/07 00:57:59;;;;;;;29.87;6.10;;;24.70;85.60;;;;;;5072228;28;20187;-78
2022/01/07 01:00:27;;;;;;;31.07;5.27;;;24.70;85.90;;;;;;5075803;28;20179;-74
2022/01/07 01:02:56;;;;;;;30.67;6.30;;;24.60;85.70;;;;;;5073385;28;20533;-75
2022/01/07 01:05:24;;;;;;;34.67;4.93;;;24.60;85.60;;;;;;5074324;28;20179;-74
2022/01/07 01:07:51;;;;;;;31.33;6.00;;;24.60;85.40;;;;;;5068105;28;20297;-74
2022/01/07 01:10:22;;;;;;;36.37;5.87;;;24.60;85.60;;;;;;5072489;28;20207;-77
2022/01/07 01:12:50;;;;;;;32.80;5.83;;;24.60;85.80;;;;;;5075099;28;20207;-76
2022/01/07 01:15:23;;;;;;;35.07;5.70;;;24.70;85.00;;;;;;5069753;28;20202;-76
2022/01/07 01:17:52;;;;;;;29.60;5.57;;;24.80;85.20;;;;;;5074974;28;20219;-76
2022/01/07 01:20:22;;;;;;;29.00;5.27;;;24.80;84.30;;;;;;5068461;28;20580;-82
2022/01/07 01:22:50;;;;;;;28.93;6.33;;;24.90;84.30;;;;;;5069295;28;20199;-75
2022/01/07 01:25:18;;;;;;;38.63;5.37;;;25.00;83.80;;;;;;5073864;28;20634;-75
2022/01/07 01:27:45;;;;;;;28.40;5.90;;;25.20;83.20;;;;;;5069513;28;20187;-77
2022/01/07 01:30:17;;;;;;;37.57;5.80;;;25.20;82.70;;;;;;5071399;28;20282;-79
2022/01/07 01:32:49;;;;;;;28.50;5.43;;;25.00;82.80;;;;;;5074424;28;20668;-75
2022/01/07 01:35:17;;;;;;;23.67;4.73;;;25.10;82.60;;;;;;5106631;28;20205;-77
2022/01/07 01:37:45;;;;;;;31.47;6.30;;;25.30;82.90;;;;;;5083208;28;20318;-75
2022/01/07 01:40:13;;;;;;;29.10;5.83;;;25.40;82.30;;;;;;5082275;28;20525;-77
2022/01/07 01:42:40;;;;;;;30.67;5.03;;;25.30;82.20;;;;;;5082235;28;20192;-79
2022/01/07 01:45:11;;;;;;;31.57;6.10;;;25.30;82.30;;;;;;5083683;28;20213;-78
2022/01/07 01:47:38;;;;;;;30.33;5.17;;;25.20;82.80;;;;;;5076656;28;20191;-78
2022/01/07 01:50:07;;;;;;;30.87;5.43;;;25.20;82.80;;;;;;5073871;28;20211;-78
2022/01/07 01:52:35;;;;;;;31.20;5.97;;;25.30;82.40;;;;;;5068410;28;20179;-76
2022/01/07 01:55:03;;;;;;;28.40;5.67;;;25.30;82.40;;;;;;5070105;28;20184;-80
2022/01/07 01:57:31;;;;;;;25.13;4.50;;;25.50;82.10;;;;;;5072173;28;20207;-78
2022/01/07 01:59:59;;;;;;;25.53;5.43;;;25.90;80.80;;;;;;5071026;28;20616;-82
2022/01/07 02:02:27;;;;;;;31.47;6.10;;;25.90;80.20;;;;;;5073316;28;20710;-78
2022/01/07 02:04:55;;;;;;;25.67;5.37;;;26.00;80.30;;;;;;5070284;28;20187;-83
2022/01/07 02:07:26;;;;;;;28.30;5.47;;;26.10;79.90;;;;;;5073357;28;20194;-77
2022/01/07 02:09:54;;;;;;;28.33;5.33;;;26.10;79.30;;;;;;5072764;28;20230;-81
2022/01/07 02:12:22;;;;;;;24.30;5.13;;;26.10;80.10;;;;;;5073691;28;20229;-79
2022/01/07 02:14:56;;;;;;;24.00;4.63;;;25.90;79.90;;;;;;5069306;28;20175;-78
2022/01/07 02:17:25;;;;;;;28.87;5.23;;;25.90;79.70;;;;;;5070183;28;20635;-77
2022/01/07 02:19:54;;;;;;;27.53;5.50;;;25.80;80.20;;;;;;5072495;28;20179;-74
2022/01/07 02:22:23;;;;;;;27.77;4.90;;;25.60;80.60;;;;;;5066546;28;20209;-77
2022/01/07 02:24:52;;;;;;;29.80;5.97;;;25.60;80.90;;;;;;5074225;28;20171;-78
2022/01/07 02:27:20;;;;;;;28.80;5.90;;;25.40;81.60;;;;;;5059389;28;20183;-75
2022/01/07 02:29:52;;;;;;;33.77;6.17;;;25.30;81.40;;;;;;5073513;28;20195;-79
2022/01/07 02:32:19;;;;;;;28.27;6.03;;;25.40;81.80;;;;;;5066881;28;20186;-80
2022/01/07 02:34:48;;;;;;;25.97;5.77;;;25.30;82.00;;;;;;5074284;28;20183;-78
2022/01/07 02:37:16;;;;;;;35.83;6.27;;;25.20;82.20;;;;;;5073071;28;20223;-73
2022/01/07 02:39:49;;;;;;;28.07;5.07;;;25.20;82.40;;;;;;5074543;28;20168;-77
2022/01/07 02:42:16;;;;;;;24.13;5.30;;;25.20;82.10;;;;;;5071858;28;20194;-74
2022/01/07 02:44:44;;;;;;;22.20;5.30;;;25.10;82.50;;;;;;5073726;28;20179;-76
2022/01/07 02:47:11;;;;;;;27.93;6.17;;;25.30;82.30;;;;;;5073555;28;20660;-76
2022/01/07 02:49:39;;;;;;;34.03;5.80;;;25.50;81.90;;;;;;5073674;28;20182;-77
2022/01/07 02:52:06;;;;;;;27.53;4.60;;;25.80;80.70;;;;;;5073553;28;20248;-82
2022/01/07 02:54:34;;;;;;;33.50;5.40;;;25.80;80.20;;;;;;5073834;28;20183;-76
2022/01/07 02:57:01;;;;;;;25.00;5.03;;;25.60;81.10;;;;;;5070226;28;20194;-75
2022/01/07 02:59:28;;;;;;;37.43;6.20;;;25.50;81.50;;;;;;5073537;28;20568;-77
2022/01/07 03:01:56;;;;;;;34.20;6.00;;;25.50;81.30;;;;;;5073535;28;20183;-79
2022/01/07 03:04:24;;;;;;;31.10;5.33;;;25.50;80.90;;;;;;5072430;28;20201;-80
2022/01/07 03:06:51;;;;;;;29.87;6.17;;;25.60;81.30;;;;;;5073100;28;20187;-73
2022/01/07 03:09:19;;;;;;;26.93;5.23;;;25.60;80.90;;;;;;5065675;28;20218;-72
2022/01/07 03:11:46;;;;;;;29.20;5.77;;;25.70;80.60;;;;;;5073782;28;20227;-74
2022/01/07 03:14:13;;;;;;;39.70;6.13;;;25.80;80.90;;;;;;5073178;28;20195;-77
2022/01/07 03:16:41;;;;;;;28.87;5.67;;;26.00;79.90;;;;;;5072239;28;20668;-78
2022/01/07 03:19:11;;;;;;;23.57;4.77;;;26.00;79.70;;;;;;5071780;28;20190;-77
2022/01/07 03:21:38;;;;;;;25.80;5.37;;;25.80;79.80;;;;;;5073434;28;20176;-80
2022/01/07 03:24:06;;;;;;;32.00;5.47;;;25.90;79.80;;;;;;5073300;28;20655;-71
2022/01/07 03:26:33;;;;;;;26.30;5.50;;;26.10;79.40;;;;;;5068282;28;20233;-74
2022/01/07 03:29:01;;;;;;;31.40;5.30;;;26.70;77.30;;;;;;5071439;28;20266;-75
2022/01/07 03:31:28;;;;;;;30.40;5.50;;;26.80;75.80;;;;;;5065557;28;20246;-80
2022/01/07 03:33:55;;;;;;;25.37;5.67;;;26.80;76.60;;;;;;5073011;28;20649;-77
2022/01/07 03:36:23;;;;;;;35.80;6.70;;;27.20;74.80;;;;;;5066030;28;20191;-82
2022/01/07 03:38:50;;;;;;;32.60;6.87;;;27.40;74.30;;;;;;5072783;28;20195;-78
2022/01/07 03:41:18;;;;;;;31.67;5.33;;;27.30;74.10;;;;;;5072641;28;20594;-78
2022/01/07 03:43:45;;;;;;;25.03;5.20;;;27.10;74.70;;;;;;5073101;28;20191;-84
2022/01/07 03:46:13;;;;;;;27.97;4.93;;;27.60;74.20;;;;;;5072910;28;20183;-79
2022/01/07 03:48:40;;;;;;;29.83;5.17;;;27.30;74.20;;;;;;5072967;28;20183;-76
2022/01/07 03:51:08;;;;;;;31.90;5.10;;;27.30;74.60;;;;;;5072318;28;20219;-77
2022/01/07 03:53:35;;;;;;;28.23;5.50;;;27.40;74.30;;;;;;5072580;28;20175;-80
2022/01/07 03:56:03;;;;;;;28.43;5.70;;;27.30;74.00;;;;;;5072586;28;20179;-79
2022/01/07 03:58:30;;;;;;;25.57;5.57;;;27.40;74.10;;;;;;5073009;28;20172;-80
2022/01/07 04:00:57;;;;;;;24.43;4.80;;;27.40;74.50;;;;;;5073180;28;20547;-76
2022/01/07 04:03:25;;;;;;;22.97;5.33;;;27.10;75.10;;;;;;5075682;28;20301;-74
2022/01/07 04:05:52;;;;;;;27.33;5.63;;;26.90;75.60;;;;;;5072615;28;20194;-80
2022/01/07 04:08:19;;;;;;;21.27;4.87;;;27.20;75.50;;;;;;5064745;28;20187;-78
2022/01/07 04:10:51;;;;;;;17.93;4.60;;;26.80;75.80;;;;;;5069672;28;20210;-77
2022/01/07 04:13:19;;;;;;;30.17;6.63;;;26.50;77.50;;;;;;5065205;28;20676;-80
2022/01/07 04:15:49;;;;;;;24.83;5.40;;;26.40;78.20;;;;;;5071658;28;20205;-80
2022/01/07 04:18:17;;;;;;;25.37;5.50;;;26.60;77.50;;;;;;5072319;28;20183;-75
2022/01/07 04:20:44;;;;;;;29.33;5.90;;;26.60;77.60;;;;;;5072474;28;20174;-78
2022/01/07 04:23:11;;;;;;;22.37;5.57;;;26.80;76.90;;;;;;5071993;28;20187;-78
2022/01/07 04:25:39;;;;;;;28.30;5.27;;;26.80;76.70;;;;;;5072381;28;20270;-78
2022/01/07 04:28:08;;;;;;;21.67;5.20;;;26.50;77.00;;;;;;5071531;28;20187;-79
2022/01/07 04:30:39;;;;;;;24.73;4.63;;;26.30;77.70;;;;;;5066045;28;20204;-79
2022/01/07 04:33:08;;;;;;;34.13;6.47;;;26.10;78.70;;;;;;5071044;28;20272;-75
2022/01/07 04:35:38;;;;;;;30.10;6.63;;;25.90;79.20;;;;;;5071844;28;20207;-75
2022/01/07 04:38:06;;;;;;;26.63;5.37;;;25.70;80.00;;;;;;5070353;28;20234;-79
2022/01/07 04:40:34;;;;;;;27.60;5.10;;;25.70;80.50;;;;;;5072117;28;20552;-77
2022/01/07 04:43:03;;;;;;;31.07;5.20;;;25.80;80.10;;;;;;5071597;28;20183;-77
2022/01/07 04:45:31;;;;;;;29.60;6.17;;;25.70;80.00;;;;;;5073044;28;20262;-75
2022/01/07 04:47:58;;;;;;;35.57;6.37;;;25.70;80.20;;;;;;5073025;28;20185;-79
2022/01/07 04:50:26;;;;;;;30.33;5.63;;;26.00;79.30;;;;;;5071944;28;20273;-77
2022/01/07 04:52:54;;;;;;;34.17;6.53;;;26.30;78.10;;;;;;5073197;28;20193;-77
2022/01/07 04:55:29;;;;;;;30.20;5.57;;;26.10;78.80;;;;;;5071876;28;20262;-75
2022/01/07 04:57:57;;;;;;;27.57;5.77;;;26.30;78.30;;;;;;5075136;28;20203;-81
2022/01/07 05:00:25;;;;;;;34.27;5.70;;;26.00;79.00;;;;;;5067707;28;20187;-80
2022/01/07 05:02:52;;;;;;;30.27;5.90;;;25.90;79.00;;;;;;5071456;28;20516;-76
2022/01/07 05:05:23;;;;;;;30.97;7.73;;;25.80;79.40;;;;;;5088998;28;20187;-80
2022/01/07 05:07:50;;;;;;;42.23;8.87;;;25.80;79.70;;;;;;5072137;28;20179;-76
2022/01/07 05:10:18;;;;;;;31.57;5.67;;;25.70;80.40;;;;;;5067380;28;20229;-75
2022/01/07 05:12:46;;;;;;;33.37;5.47;;;25.70;80.30;;;;;;5070766;28;20184;-73
2022/01/07 05:15:15;;;;;;;35.57;7.07;;;25.60;80.70;;;;;;5069889;28;20192;-75
2022/01/07 05:17:43;;;;;;;37.30;7.10;;;25.40;80.90;;;;;;5071788;28;20622;-73
2022/01/07 05:20:13;;;;;;;34.73;5.93;;;25.80;80.50;;;;;;5072849;28;20179;-79
2022/01/07 05:22:41;;;;;;;33.17;6.00;;;25.70;80.00;;;;;;5075226;28;20218;-73
2022/01/07 05:25:10;;;;;;;42.10;7.17;;;25.50;80.40;;;;;;5074902;28;20187;-79
2022/01/07 05:27:38;;;;;;;33.00;6.67;;;25.60;80.30;;;;;;5068355;28;20274;-79
2022/01/07 05:30:09;;;;;;;32.23;5.43;;;25.80;80.10;;;;;;5071500;28;20229;-75
2022/01/07 05:32:36;;;;;;;36.70;6.43;;;25.60;80.20;;;;;;5070401;28;20550;-76
2022/01/07 05:35:05;;;;;;;33.33;6.43;;;25.60;80.20;;;;;;5074997;28;20190;-78
2022/01/07 05:37:35;;;;;;;29.50;6.07;;;25.70;79.90;;;;;;5074304;28;20231;-75
2022/01/07 05:40:04;;;;;;;40.03;7.00;;;25.80;79.90;;;;;;5073864;28;20187;-80
2022/01/07 05:42:32;;;;;;;28.57;6.00;;;25.70;80.10;;;;;;5075166;28;20270;-78
2022/01/07 05:44:59;;;;;;;36.87;6.27;;;25.60;80.40;;;;;;5074460;28;20183;-79
2022/01/07 05:47:27;;;;;;;37.03;7.90;;;25.40;81.00;;;;;;5075227;28;20194;-80
2022/01/07 05:49:54;;;;;;;38.47;8.43;;;25.40;81.00;;;;;;5074754;28;20207;-77
2022/01/07 05:52:22;;;;;;;30.83;6.73;;;25.50;80.90;;;;;;5074278;28;20175;-75
2022/01/07 05:54:50;;;;;;;31.27;5.87;;;25.30;81.10;;;;;;5074875;28;20304;-74
2022/01/07 05:57:17;;;;;;;42.53;7.17;;;25.20;81.50;;;;;;5056000;28;20318;-74
2022/01/07 05:59:45;;;;;;;33.03;7.23;;;25.10;81.60;;;;;;5069016;28;20664;-81
2022/01/07 06:02:12;;;;;;;38.27;7.13;;;25.10;81.90;;;;;;5074489;28;20842;-76
2022/01/07 06:04:40;;;;;;;40.37;6.63;;;25.20;81.70;;;;;;5074782;28;20185;-76
2022/01/07 06:07:08;;;;;;;41.00;6.37;;;25.20;81.60;;;;;;5086990;28;20223;-76
2022/01/07 06:09:35;;;;;;;30.33;6.23;;;25.20;81.80;;;;;;5080205;28;20606;-77
2022/01/07 06:12:03;;;;;;;37.97;6.40;;;25.20;81.50;;;;;;5066241;28;20184;-80
2022/01/07 06:14:30;;;;;;;35.90;6.97;;;25.10;81.80;;;;;;5074590;28;20184;-74
2022/01/07 06:16:57;;;;;;;32.90;6.80;;;25.20;81.60;;;;;;5073284;28;20521;-80
2022/01/07 06:19:25;;;;;;;24.40;6.37;;;25.20;81.90;;;;;;5073260;28;20262;-78
2022/01/07 06:21:52;;;;;;;44.30;7.67;;;25.10;81.40;;;;;;5074488;28;20179;-80
2022/01/07 06:24:19;;;;;;;35.73;7.13;;;25.20;81.70;;;;;;5069615;28;20221;-79
2022/01/07 06:26:47;;;;;;;37.50;7.17;;;25.20;81.50;;;;;;5074619;28;20249;-75
2022/01/07 06:29:14;;;;;;;41.40;6.43;;;25.20;81.70;;;;;;5074942;28;20183;-75
2022/01/07 06:31:42;;;;;;;32.93;6.93;;;25.20;81.60;;;;;;5070331;28;20680;-75
2022/01/07 06:34:09;;;;;;;29.13;5.90;;;25.20;81.70;;;;;;5073890;28;20258;-75
2022/01/07 06:36:36;;;;;;;32.17;6.17;;;25.30;81.30;;;;;;5073306;28;20671;-77
2022/01/07 06:39:04;;;;;;;36.00;6.57;;;25.30;81.00;;;;;;5062922;28;20666;-75
2022/01/07 06:41:31;;;;;;;41.00;6.80;;;25.20;81.30;;;;;;5066232;28;20191;-76
2022/01/07 06:43:59;;;;;;;37.53;6.90;;;25.30;81.10;;;;;;5071133;28;20186;-77
2022/01/07 06:46:26;;;;;;;37.07;7.20;;;25.40;81.00;;;;;;5065413;28;20641;-76
2022/01/07 06:48:54;;;;;;;30.50;6.67;;;25.30;81.20;;;;;;5073706;28;20184;-74
2022/01/07 06:51:21;;;;;;;33.63;6.47;;;25.20;81.30;;;;;;5074652;28;20306;-76
2022/01/07 06:53:48;;;;;;;38.23;6.03;;;25.00;81.90;;;;;;5077628;28;20655;-76
2022/01/07 06:56:15;;;;;;;40.00;7.70;;;25.00;82.30;;;;;;5074135;28;20187;-74
2022/01/07 06:58:43;;;;;;;42.63;7.43;;;25.10;81.80;;;;;;5069352;28;20183;-78
2022/01/07 07:01:10;;;;;;;41.10;6.90;;;25.20;81.70;;;;;;5068398;28;20581;-75
2022/01/07 07:03:40;;;;;;;36.87;6.93;;;25.20;81.50;;;;;;5071321;28;20179;-78
2022/01/07 07:06:08;;;;;;;41.90;7.13;;;25.30;81.10;;;;;;5073419;28;20194;-77
2022/01/07 07:08:36;;;;;;;35.60;5.97;;;25.30;81.00;;;;;;5068545;28;20179;-80
2022/01/07 07:11:03;;;;;;;36.97;7.17;;;25.20;81.30;;;;;;5070363;28;20227;-75
2022/01/07 07:13:31;;;;;;;33.93;7.23;;;25.20;81.40;;;;;;5066949;28;20179;-80
2022/01/07 07:15:58;;;;;;;37.40;6.20;;;25.30;81.30;;;;;;5070596;28;20691;-75
2022/01/07 07:18:25;;;;;;;34.93;6.50;;;25.20;81.30;;;;;;5072717;28;20184;-76
2022/01/07 07:20:53;;;;;;;38.20;6.57;;;25.40;80.90;;;;;;5072653;28;20523;-76
2022/01/07 07:23:20;;;;;;;29.40;5.47;;;25.30;80.70;;;;;;5072252;28;20601;-81
2022/01/07 07:25:47;;;;;;;35.87;6.27;;;25.10;81.10;;;;;;5072642;28;20185;-78
2022/01/07 07:28:15;;;;;;;30.03;6.07;;;25.00;81.40;;;;;;5068996;28;20261;-77
2022/01/07 07:30:46;;;;;;;35.97;6.37;;;25.00;81.40;;;;;;5067563;28;20235;-75
2022/01/07 07:38:46;;;;;;;27.13;6.43;;;25.10;81.10;;;;;;5069091;28;20195;-75
2022/01/07 07:41:16;;;;;;;27.43;6.17;;;25.00;81.20;;;;;;5072204;28;20178;-74
2022/01/07 07:43:47;;;;;;;33.10;7.17;;;25.00;81.50;;;;;;5072731;28;20194;-77
2022/01/07 07:46:15;;;;;;;31.80;6.47;;;25.00;81.30;;;;;;5072153;28;20167;-78
2022/01/07 07:48:42;;;;;;;38.03;6.50;;;25.00;81.70;;;;;;5072546;28;20538;-83
2022/01/07 07:51:09;;;;;;;42.00;6.83;;;24.80;81.90;;;;;;5070886;28;20214;-79
2022/01/07 07:53:37;;;;;;;40.73;7.23;;;24.80;82.10;;;;;;5072266;28;20205;-79
2022/01/07 07:56:05;;;;;;;36.50;6.90;;;24.80;82.30;;;;;;5072027;28;20465;-75
2022/01/07 07:58:33;;;;;;;34.30;7.00;;;24.80;82.60;;;;;;5071523;28;20178;-76
2022/01/07 08:01:01;;;;;;;38.77;6.43;;;24.70;82.90;;;;;;5070652;28;20225;-80
2022/01/07 08:03:28;;;;;;;39.67;7.43;;;24.60;83.00;;;;;;5072617;28;20667;-73
2022/01/07 08:05:56;;;;;;;43.07;6.60;;;24.50;83.50;;;;;;5071997;28;20179;-78
2022/01/07 08:08:23;;;;;;;30.90;5.83;;;24.50;83.50;;;;;;5071389;28;20173;-75
2022/01/07 08:10:55;;;;;;;40.83;7.53;;;24.50;83.70;;;;;;5072171;28;20256;-76
2022/01/07 08:13:30;;;;;;;37.00;6.23;;;24.50;83.70;;;;;;5066376;28;20183;-75
2022/01/07 08:16:06;;;;;;;34.10;6.60;;;24.40;83.70;;;;;;5071907;28;20262;-72
2022/01/07 08:18:35;;;;;;;38.97;7.23;;;24.40;83.90;;;;;;5072213;28;20194;-76
2022/01/07 08:21:12;;;;;;;35.97;6.57;;;24.30;84.10;;;;;;5070466;28;20233;-76
2022/01/07 08:23:43;;;;;;;38.90;7.10;;;24.30;84.20;;;;;;5072094;28;20182;-80
2022/01/07 08:26:11;;;;;;;29.30;6.90;;;24.30;84.20;;;;;;5070431;28;20661;-76
2022/01/07 08:28:45;;;;;;;26.73;6.10;;;24.30;84.20;;;;;;5071791;28;20519;-78
2022/01/07 08:36:30;;;;;;;33.83;6.03;;;24.30;84.30;;;;;;5072226;28;20194;-76
2022/01/07 08:38:58;;;;;;;36.53;6.93;;;24.20;84.60;;;;;;5071223;28;20187;-75
2022/01/07 08:41:31;;;;;;;37.00;7.20;;;24.20;84.60;;;;;;5071992;28;20619;-77
2022/01/07 08:43:59;;;;;;;35.53;6.73;;;24.20;84.30;;;;;;5072175;28;20177;-78
2022/01/07 08:46:27;;;;;;;30.93;6.27;;;24.20;84.20;;;;;;5071789;28;20187;-75
2022/01/07 08:48:55;;;;;;;41.60;7.37;;;24.10;84.20;;;;;;5072165;28;20622;-75
2022/01/07 08:51:22;;;;;;;36.93;7.90;;;24.20;84.20;;;;;;5065095;28;20211;-75
2022/01/07 08:53:50;;;;;;;28.87;6.60;;;24.10;84.20;;;;;;5071589;28;20186;-77
2022/01/07 08:56:17;;;;;;;36.87;6.47;;;24.10;84.10;;;;;;5072296;28;20242;-74
2022/01/07 08:58:45;;;;;;;35.67;7.37;;;24.10;84.10;;;;;;5079660;28;20170;-76
2022/01/07 09:01:12;;;;;;;35.23;6.80;;;24.10;84.10;;;;;;5073863;28;20191;-74
2022/01/07 09:03:39;;;;;;;37.90;7.27;;;24.10;84.00;;;;;;5082395;28;20182;-74
2022/01/07 09:06:07;;;;;;;38.73;7.40;;;24.10;84.10;;;;;;5076329;28;20194;-77
2022/01/07 09:08:34;;;;;;;47.57;7.23;;;24.10;84.00;;;;;;5079998;28;20294;-77
2022/01/07 09:11:05;;;;;;;39.53;7.17;;;24.10;84.10;;;;;;5077448;28;20218;-72
2022/01/07 09:13:32;;;;;;;47.17;7.33;;;24.10;84.20;;;;;;5075550;28;20524;-82
2022/01/07 09:15:59;;;;;;;39.63;8.30;;;24.10;84.20;;;;;;5073718;28;20176;-75
2022/01/07 09:18:27;;;;;;;30.17;7.10;;;24.00;84.40;;;;;;5069067;28;20203;-74
2022/01/07 09:20:54;;;;;;;39.33;7.57;;;24.00;84.50;;;;;;5074892;28;20183;-79
2022/01/07 09:23:22;;;;;;;43.87;8.70;;;24.00;84.30;;;;;;5075085;28;20529;-74
2022/01/07 09:25:49;;;;;;;32.47;6.70;;;24.00;84.20;;;;;;5075221;28;20263;-76
2022/01/07 09:28:18;;;;;;;38.97;6.93;;;24.00;84.20;;;;;;5068300;28;20211;-76
2022/01/07 09:30:46;;;;;;;39.20;7.50;;;24.00;84.20;;;;;;5067092;28;20242;-73
2022/01/07 09:33:14;;;;;;;36.47;6.77;;;24.00;84.10;;;;;;5074973;28;20184;-77
2022/01/07 09:35:41;;;;;;;37.00;6.50;;;24.00;84.10;;;;;;5074834;28;20267;-72
2022/01/07 09:38:08;;;;;;;33.37;6.90;;;23.90;84.20;;;;;;5074016;28;20587;-74
2022/01/07 09:40:36;;;;;;;41.50;6.57;;;24.00;84.20;;;;;;5074517;28;20215;-78
2022/01/07 09:43:09;;;;;;;42.17;6.90;;;24.00;83.90;;;;;;5074421;28;20175;-77
2022/01/07 09:45:38;;;;;;;34.30;6.63;;;24.00;84.00;;;;;;5074652;28;20179;-76
2022/01/07 09:48:08;;;;;;;29.27;5.93;;;24.00;84.10;;;;;;5073074;28;20229;-79
2022/01/07 09:50:37;;;;;;;34.57;7.63;;;24.00;84.10;;;;;;5074536;28;20624;-81
2022/01/07 09:53:12;;;;;;;42.97;7.40;;;24.00;84.10;;;;;;5074126;28;20183;-78
2022/01/07 09:55:40;;;;;;;38.27;7.23;;;23.90;84.00;;;;;;5073763;28;20175;-77
2022/01/07 09:58:08;;;;;;;40.00;6.67;;;23.90;84.00;;;;;;5074392;28;20606;-78
2022/01/07 10:00:38;;;;;;;43.17;7.63;;;23.90;84.10;;;;;;5074485;28;20538;-76
2022/01/07 10:03:11;;;;;;;36.33;6.47;;;23.90;84.20;;;;;;5074547;28;20602;-77
2022/01/07 10:05:56;;;;;;;30.13;6.33;;;23.90;84.10;;;;;;5074204;28;20645;-76
2022/01/07 10:08:28;;;;;;;33.40;6.57;;;23.90;84.20;;;;;;5069521;28;20168;-82
2022/01/07 10:11:21;;;;;;;32.10;6.17;;;23.90;84.00;;;;;;5074242;28;20202;-75
2022/01/07 10:13:51;;;;;;;27.40;6.03;;;23.80;84.00;;;;;;5074721;28;20202;-83
2022/01/07 10:16:19;;;;;;;33.83;6.73;;;23.90;84.00;;;;;;5071385;28;20262;-76
2022/01/07 10:18:47;;;;;;;29.23;6.30;;;23.80;84.00;;;;;;5072872;28;20183;-74
2022/01/07 10:21:19;;;;;;;43.07;7.10;;;23.80;84.20;;;;;;5073539;28;20212;-75
2022/01/07 10:23:47;;;;;;;39.37;6.73;;;23.80;84.20;;;;;;5074248;28;20179;-82
2022/01/07 10:26:21;;;;;;;40.20;6.50;;;23.80;84.20;;;;;;5076871;28;20630;-77
2022/01/07 10:28:51;;;;;;;39.17;6.67;;;23.80;84.20;;;;;;5072705;28;20189;-80
2022/01/07 10:31:25;;;;;;;33.07;6.60;;;23.80;84.40;;;;;;5065751;28;20257;-80
2022/01/07 10:33:53;;;;;;;34.30;6.90;;;23.80;84.50;;;;;;5073455;28;20537;-74
2022/01/07 10:36:25;;;;;;;43.93;6.80;;;23.80;84.50;;;;;;5073752;28;20203;-78
2022/01/07 10:39:02;;;;;;;42.73;6.60;;;23.70;84.60;;;;;;5073717;28;20195;-77
2022/01/07 10:41:29;;;;;;;41.07;7.60;;;23.80;84.70;;;;;;5073401;28;20175;-76
2022/01/07 10:44:03;;;;;;;38.40;6.33;;;23.80;84.80;;;;;;5071725;28;20183;-77
2022/01/07 10:46:31;;;;;;;38.87;7.17;;;23.80;84.90;;;;;;5064682;28;20652;-75
2022/01/07 10:49:01;;;;;;;41.07;8.10;;;23.70;85.10;;;;;;5071634;28;20183;-74
2022/01/07 10:51:31;;;;;;;44.40;7.10;;;23.70;85.20;;;;;;5073763;28;20210;-75
2022/01/07 10:54:01;;;;;;;40.40;6.93;;;23.70;85.10;;;;;;5073773;28;20203;-82
2022/01/07 10:56:51;;;;;;;40.87;7.23;;;23.70;85.30;;;;;;5072042;28;20217;-80
2022/01/07 10:59:22;;;;;;;34.53;7.07;;;23.70;85.40;;;;;;5085678;28;20179;-78
2022/01/07 11:01:58;;;;;;;34.83;6.40;;;23.70;85.40;;;;;;5076881;28;20197;-78
2022/01/07 11:04:30;;;;;;;45.33;7.00;;;23.70;85.40;;;;;;5075501;28;20174;-74
2022/01/07 11:06:59;;;;;;;38.37;7.37;;;23.70;85.40;;;;;;5075319;28;20210;-75
2022/01/07 11:09:27;;;;;;;32.47;6.63;;;23.70;85.50;;;;;;5075371;28;20289;-77
2022/01/07 11:12:03;;;;;;;35.70;7.07;;;23.70;85.60;;;;;;5072934;28;20276;-73
2022/01/07 11:14:34;;;;;;;41.37;6.60;;;23.70;85.50;;;;;;5074190;28;20194;-72
2022/01/07 11:17:10;;;;;;;46.57;7.27;;;23.70;85.60;;;;;;5078993;28;20189;-75
2022/01/07 11:19:44;;;;;;;41.03;7.63;;;23.70;85.60;;;;;;5072472;28;20179;-75
2022/01/07 11:22:13;;;;;;;43.87;8.00;;;23.70;85.50;;;;;;5070854;28;20229;-73
2022/01/07 11:24:54;;;;;;;29.40;6.17;;;23.70;85.40;;;;;;5078317;28;20316;-73
2022/01/07 11:27:28;;;;;;;43.33;7.03;;;23.70;85.60;;;;;;5070305;28;20178;-77
2022/01/07 11:30:04;;;;;;;45.10;7.53;;;23.60;85.50;;;;;;5068433;28;20649;-74
2022/01/07 11:32:52;;;;;;;37.77;6.63;;;23.60;85.70;;;;;;5069240;28;20178;-74
2022/01/07 11:35:20;;;;;;;36.10;7.70;;;23.60;85.80;;;;;;5068299;28;20175;-73
2022/01/07 11:37:59;;;;;;;37.73;7.30;;;23.60;85.80;;;;;;5076301;28;20251;-78
2022/01/07 11:40:32;;;;;;;43.50;7.10;;;23.60;85.80;;;;;;5071998;28;20179;-78
2022/01/07 11:43:14;;;;;;;43.40;6.60;;;23.60;85.80;;;;;;5072762;28;20187;-79
2022/01/07 11:45:46;;;;;;;45.80;7.27;;;23.60;85.80;;;;;;5072442;28;20206;-72
2022/01/07 11:48:17;;;;;;;40.97;6.77;;;23.60;85.80;;;;;;5072175;28;20167;-78
2022/01/07 11:50:47;;;;;;;37.40;7.37;;;23.60;85.80;;;;;;5072845;28;20582;-75
2022/01/07 11:53:15;;;;;;;43.17;6.43;;;23.50;85.70;;;;;;5072044;28;20184;-73
2022/01/07 11:55:43;;;;;;;55.67;8.60;;;23.60;85.80;;;;;;5072712;28;20676;-79
2022/01/07 11:58:16;;;;;;;32.63;6.37;;;23.60;85.70;;;;;;5072515;28;20186;-74
2022/01/07 12:01:03;;;;;;;40.93;7.97;;;23.50;85.80;;;;;;5092933;28;20286;-75
2022/01/07 12:03:51;;;;;;;51.17;7.87;;;23.50;85.80;;;;;;5066769;28;20171;-79
2022/01/07 12:06:27;;;;;;;38.60;6.73;;;23.50;86.00;;;;;;5065192;28;20613;-75
2022/01/07 12:09:09;;;;;;;39.17;7.47;;;23.50;86.00;;;;;;5071939;28;20191;-74
2022/01/07 12:11:44;;;;;;;33.57;6.30;;;23.50;86.00;;;;;;5067758;28;20213;-77
2022/01/07 12:14:18;;;;;;;39.87;7.10;;;23.50;85.90;;;;;;5071999;28;21068;-74
2022/01/07 12:16:47;;;;;;;38.20;6.83;;;23.50;85.90;;;;;;5072730;28;20190;-75
2022/01/07 12:19:21;;;;;;;34.53;7.03;;;23.50;86.00;;;;;;5071793;28;20174;-78
2022/01/07 12:21:51;;;;;;;33.50;6.77;;;23.50;85.90;;;;;;5072420;28;20174;-80
2022/01/07 12:24:26;;;;;;;38.77;7.03;;;23.50;86.00;;;;;;5063371;28;20605;-77
2022/01/07 12:27:23;;;;;;;32.70;7.10;;;23.50;86.00;;;;;;5072426;28;20186;-73
2022/01/07 12:29:57;;;;;;;28.70;6.30;;;23.50;85.90;;;;;;5067161;28;20237;-75
2022/01/07 12:32:33;;;;;;;36.97;6.10;;;23.50;85.90;;;;;;5065456;28;20228;-76
2022/01/07 12:35:01;;;;;;;29.97;6.53;;;23.50;85.70;;;;;;5069950;28;20183;-75
2022/01/07 12:37:29;;;;;;;30.70;5.83;;;23.60;85.70;;;;;;5070678;28;20339;-78
2022/01/07 12:39:59;;;;;;;51.10;8.00;;;23.50;85.60;;;;;;5072019;28;20209;-75
2022/01/07 12:42:28;;;;;;;36.63;6.50;;;23.60;85.60;;;;;;5072397;28;20665;-75
2022/01/07 12:44:57;;;;;;;32.67;6.57;;;23.60;85.50;;;;;;5071590;28;20671;-76
2022/01/07 12:47:30;;;;;;;35.77;7.10;;;23.60;85.40;;;;;;5071930;28;20171;-74
2022/01/07 12:49:59;;;;;;;31.70;6.90;;;23.60;85.30;;;;;;5071863;28;20187;-76
2022/01/07 12:52:32;;;;;;;32.77;6.17;;;23.60;85.10;;;;;;5071882;28;20183;-80
2022/01/07 12:55:15;;;;;;;35.93;6.90;;;23.60;85.00;;;;;;5071394;28;20186;-74
2022/01/07 12:57:48;;;;;;;32.77;6.00;;;23.60;84.90;;;;;;5065198;28;20176;-73